Time;durP1;ratioP1;P1;durP2;ratioP2;P2;SDS_P1;SDS_P2;PMS_P1;PMS_P2;Temp;Humidity;BMP_temperature;BMP_pressure;BME280_temperature;BME280_humidity;BME280_pressure;Samples;Min_cycle;Max_cycle;Signal;HPM_P1;HPM_P2
2024/04/12 00:00:32;;;;;;;;;;;;;;;7.39;100.00;100545.56;5529308;25;20373;-69
2024/04/12 00:02:58;;;;;;;;;;;;;;;7.38;100.00;100541.25;5561880;25;19975;-69
2024/04/12 00:05:23;;;;;;;;;;;;;;;7.37;100.00;100543.06;5561519;25;19935;-68
2024/04/12 00:08:01;;;;;;;;;;;;;;;7.40;100.00;100536.63;5562753;25;20270;-68
2024/04/12 00:10:27;;;;;;;;;;;;;;;7.43;100.00;100538.97;5562113;25;19995;-69
2024/04/12 00:12:52;;;;;;;;;;;;;;;7.40;100.00;100526.03;5561756;25;19939;-70
2024/04/12 00:15:21;;;;;;;;;;;;;;;7.36;100.00;100537.91;5528518;25;20053;-70
2024/04/12 00:17:47;;;;;;;;;;;;;;;7.37;100.00;100515.72;5561335;25;19933;-69
2024/04/12 00:20:13;;;;;;;;;;;;;;;7.38;100.00;100523.53;5561478;25;19927;-71
2024/04/12 00:22:39;;;;;;;;;;;;;;;7.41;100.00;100522.41;5561581;25;20430;-69
2024/04/12 00:25:04;;;;;;;;;;;;;;;7.38;100.00;100522.69;5561673;25;19927;-71
2024/04/12 00:27:33;;;;;;;;;;;;;;;7.36;100.00;100509.59;5561295;25;19966;-69
2024/04/12 00:30:03;;;;;;;;;;;;;;;7.41;100.00;100509.16;5561081;25;19935;-69
2024/04/12 00:32:28;;;;;;;;;;;;;;;7.39;100.00;100513.75;5561370;25;19934;-70
2024/04/12 00:34:55;;;;;;;;;;;;;;;7.39;100.00;100505.81;5563528;25;20302;-69
2024/04/12 00:37:27;;;;;;;;;;;;;;;7.38;100.00;100512.94;5564978;25;19959;-70
2024/04/12 00:39:54;;;;;;;;;;;;;;;7.38;100.00;100502.34;5532762;25;19930;-69
2024/04/12 00:42:31;;;;;;;;;;;;;;;7.38;100.00;100502.34;5564939;25;20378;-69
2024/04/12 00:44:58;;;;;;;;;;;;;;;7.37;100.00;100494.53;5532029;25;19939;-68
2024/04/12 00:47:23;;;;;;;;;;;;;;;7.36;100.00;100517.53;5531777;25;19926;-67
2024/04/12 00:49:49;;;;;;;;;;;;;;;7.34;100.00;100516.88;5564514;25;20418;-68
2024/04/12 00:52:27;;;;;;;;;;;;;;;7.31;100.00;100511.03;5565221;25;19933;-68
2024/04/12 00:54:56;;;;;;;;;;;;;;;7.21;100.00;100515.53;5564479;25;19927;-67
2024/04/12 00:57:22;;;;;;;;;;;;;;;7.22;100.00;100519.84;5564348;25;20066;-67
2024/04/12 00:59:51;;;;;;;;;;;;;;;7.12;100.00;100523.38;5564292;25;20358;-69
2024/04/12 01:02:21;;;;;;;;;;;;;;;7.06;100.00;100518.66;5564239;25;20069;-66
2024/04/12 01:04:46;;;;;;;;;;;;;;;6.97;100.00;100521.38;5531600;25;19927;-67
2024/04/12 01:07:13;;;;;;;;;;;;;;;6.97;100.00;100522.19;5564083;25;20267;-67
2024/04/12 01:09:43;;;;;;;;;;;;;;;6.85;100.00;100533.91;5564230;25;19934;-67
2024/04/12 01:12:16;;;;;;;;;;;;;;;6.76;100.00;100534.78;5564720;25;19927;-69
2024/04/12 01:14:42;;;;;;;;;;;;;;;6.75;100.00;100530.47;5564673;25;19998;-68
2024/04/12 01:17:10;;;;;;;;;;;;;;;6.70;100.00;100517.69;5531076;25;20911;-67
2024/04/12 01:19:38;;;;;;;;;;;;;;;6.66;100.00;100523.41;5563943;25;19927;-70
2024/04/12 01:22:04;;;;;;;;;;;;;;;6.62;100.00;100514.06;5547816;25;19927;-68
2024/04/12 01:24:29;;;;;;;;;;;;;;;6.59;100.00;100517.84;5516136;25;20295;-68
2024/04/12 01:26:56;;;;;;;;;;;;;;;6.56;100.00;100518.13;5564187;25;20279;-69
2024/04/12 01:29:23;;;;;;;;;;;;;;;6.51;100.00;100523.00;5531764;25;19932;-67
2024/04/12 01:31:53;;;;;;;;;;;;;;;6.47;100.00;100517.16;5526636;26;19927;-67
2024/04/12 01:34:19;;;;;;;;;;;;;;;6.47;100.00;100501.28;5494241;26;19996;-68
2024/04/12 01:36:45;;;;;;;;;;;;;;;6.46;100.00;100515.50;5527766;26;19928;-68
2024/04/12 01:39:11;;;;;;;;;;;;;;;6.46;100.00;100509.38;5532994;26;19923;-70
2024/04/12 01:41:38;;;;;;;;;;;;;;;6.39;100.00;100513.56;5548324;26;19935;-68
2024/04/12 01:44:06;;;;;;;;;;;;;;;6.35;100.00;100518.28;5549123;26;19919;-69
2024/04/12 01:46:34;;;;;;;;;;;;;;;6.35;100.00;100512.16;5537359;26;20390;-69
2024/04/12 01:49:00;;;;;;;;;;;;;;;6.33;100.00;100520.25;5527132;26;19927;-69
2024/04/12 01:51:25;;;;;;;;;;;;;;;6.30;100.00;100520.53;5526822;26;19928;-69
2024/04/12 01:53:54;;;;;;;;;;;;;;;6.29;100.00;100518.84;5526298;26;19995;-68
2024/04/12 01:56:21;;;;;;;;;;;;;;;6.31;100.00;100532.78;5525150;26;19960;-66
2024/04/12 01:58:47;;;;;;;;;;;;;;;6.31;100.00;100516.91;5526011;26;19959;-67
2024/04/12 02:01:14;;;;;;;;;;;;;;;6.29;100.00;100521.50;5526567;26;19927;-68
2024/04/12 02:03:40;;;;;;;;;;;;;;;6.26;100.00;100532.38;5526403;26;20392;-69
2024/04/12 02:06:05;;;;;;;;;;;;;;;6.22;100.00;100525.69;5528228;26;19940;-69
2024/04/12 02:08:32;;;;;;;;;;;;;;;6.24;100.00;100521.09;5534934;26;20271;-70
2024/04/12 02:10:58;;;;;;;;;;;;;;;6.27;100.00;100519.97;5534640;26;19959;-68
2024/04/12 02:13:23;;;;;;;;;;;;;;;6.23;100.00;100530.00;5526481;26;19939;-69
2024/04/12 02:15:53;;;;;;;;;;;;;;;6.21;100.00;100534.59;5525174;26;19927;-69
2024/04/12 02:18:22;;;;;;;;;;;;;;;6.22;100.00;100538.91;5524793;26;20003;-71
2024/04/12 02:20:51;;;;;;;;;;;;;;;6.18;100.00;100548.09;5526392;26;19928;-69
2024/04/12 02:23:19;;;;;;;;;;;;;;;6.14;100.00;100547.56;5494144;26;19928;-68
2024/04/12 02:25:44;;;;;;;;;;;;;;;6.12;100.00;100553.94;5525961;26;19934;-68
2024/04/12 02:28:11;;;;;;;;;;;;;;;6.10;100.00;100545.34;5525891;26;19935;-69
2024/04/12 02:30:43;;;;;;;;;;;;;;;6.03;100.00;100557.41;5526690;26;19939;-67
2024/04/12 02:33:09;;;;;;;;;;;;;;;6.01;100.00;100556.72;5493477;26;19990;-70
2024/04/12 02:35:41;;;;;;;;;;;;;;;5.96;100.00;100553.66;5528168;26;20279;-69
2024/04/12 02:38:06;;;;;;;;;;;;;;;5.93;100.00;100559.22;5527274;26;19934;-67
2024/04/12 02:40:32;;;;;;;;;;;;;;;5.93;100.00;100573.28;5526621;26;19928;-69
2024/04/12 02:42:58;;;;;;;;;;;;;;;5.92;100.00;100571.59;5526098;26;19939;-67
2024/04/12 02:45:27;;;;;;;;;;;;;;;5.90;100.00;100571.75;5526159;26;19927;-69
2024/04/12 02:47:53;;;;;;;;;;;;;;;5.90;100.00;100594.69;5525810;26;19928;-68
2024/04/12 02:50:18;;;;;;;;;;;;;;;5.93;100.00;100575.06;5527666;26;19927;-69
2024/04/12 02:52:43;;;;;;;;;;;;;;;5.90;100.00;100589.41;5528680;26;20379;-69
2024/04/12 02:55:15;;;;;;;;;;;;;;;5.89;100.00;100596.50;5527624;26;20374;-69
2024/04/12 02:57:44;;;;;;;;;;;;;;;5.93;100.00;100598.88;5524425;26;19932;-67
2024/04/12 03:00:22;;;;;;;;;;;;;;;5.94;100.00;100597.91;5526197;26;19934;-70
2024/04/12 03:02:51;;;;;;;;;;;;;;;6.00;100.00;100597.34;5527734;26;19927;-68
2024/04/12 03:05:17;;;;;;;;;;;;;;;6.04;100.00;100604.00;5495865;26;19978;-66
2024/04/12 03:07:45;;;;;;;;;;;;;;;6.06;100.00;100602.06;5527925;26;19935;-67
2024/04/12 03:10:11;;;;;;;;;;;;;;;6.10;100.00;100606.97;5527642;26;19927;-69
2024/04/12 03:12:36;;;;;;;;;;;;;;;6.12;100.00;100628.00;5493598;26;19995;-67
2024/04/12 03:15:04;;;;;;;;;;;;;;;6.10;100.00;100608.78;5526602;26;19928;-69
2024/04/12 03:17:29;;;;;;;;;;;;;;;6.05;100.00;100600.41;5525943;26;19938;-69
2024/04/12 03:19:55;;;;;;;;;;;;;;;5.96;100.00;100611.81;5525126;26;19927;-69
2024/04/12 03:22:21;;;;;;;;;;;;;;;5.95;100.00;100618.91;5492426;26;19939;-69
2024/04/12 03:24:46;;;;;;;;;;;;;;;5.95;100.00;100615.41;5492785;26;19928;-67
2024/04/12 03:27:13;;;;;;;;;;;;;;;5.98;100.00;100615.97;5526668;26;19934;-68
2024/04/12 03:29:38;;;;;;;;;;;;;;;5.99;100.00;100617.66;5532052;26;19928;-69
2024/04/12 03:32:07;;;;;;;;;;;;;;;5.99;100.00;100612.38;5536215;26;19972;-69
2024/04/12 03:34:35;;;;;;;;;;;;;;;6.03;100.00;100639.34;5527057;26;19935;-68
2024/04/12 03:37:23;;;;;;;;;;;;;;;6.04;100.00;100633.09;5525389;26;19956;-69
2024/04/12 03:39:47;;;;;;;;;;;;;;;6.06;100.00;100607.34;5525304;26;19938;-69
2024/04/12 03:42:12;;;;;;;;;;;;;;;6.12;100.00;100622.69;5492642;26;20334;-69
2024/04/12 03:44:38;;;;;;;;;;;;;;;6.16;100.00;100634.66;5525113;26;19934;-70
2024/04/12 03:47:10;;;;;;;;;;;;;;;6.20;100.00;100641.34;5493094;26;20375;-68
2024/04/12 03:49:39;;;;;;;;;;;;;;;6.21;100.00;100635.09;5494569;26;19927;-70
2024/04/12 03:52:05;;;;;;;;;;;;;;;6.23;100.00;100641.06;5524721;26;20170;-67
2024/04/12 03:54:30;;;;;;;;;;;;;;;6.22;100.00;100655.25;5490805;26;19959;-71
2024/04/12 03:56:57;;;;;;;;;;;;;;;6.20;100.00;100652.75;5523855;26;20358;-69
2024/04/12 03:59:29;;;;;;;;;;;;;;;6.21;100.00;100653.59;5490731;26;19999;-68
2024/04/12 04:01:55;;;;;;;;;;;;;;;6.24;100.00;100648.03;5524087;26;19928;-68
2024/04/12 04:04:25;;;;;;;;;;;;;;;6.24;100.00;100640.09;5462091;26;19927;-67
2024/04/12 04:06:54;;;;;;;;;;;;;;;6.25;100.00;100644.41;5526793;26;20078;-68
2024/04/12 04:09:25;;;;;;;;;;;;;;;6.29;100.00;100656.38;5461923;26;20440;-66
2024/04/12 04:11:54;;;;;;;;;;;;;;;6.33;100.00;100646.34;5526694;26;19943;-67
2024/04/12 04:14:20;;;;;;;;;;;;;;;6.34;100.00;100648.88;5494493;26;19935;-70
2024/04/12 04:16:53;;;;;;;;;;;;;;;6.34;100.00;100654.16;5526724;26;20031;-68
2024/04/12 04:19:31;;;;;;;;;;;;;;;6.29;100.00;100661.66;5527941;25;19934;-69
2024/04/12 04:22:01;;;;;;;;;;;;;;;6.29;100.00;100661.66;5562810;25;19934;-71
2024/04/12 04:24:26;;;;;;;;;;;;;;;6.31;100.00;100665.00;5494777;26;19995;-70
2024/04/12 04:26:52;;;;;;;;;;;;;;;6.32;100.00;100660.56;5500396;26;19931;-70
2024/04/12 04:29:18;;;;;;;;;;;;;;;6.35;100.00;100669.06;5560917;25;19927;-70
2024/04/12 04:31:47;;;;;;;;;;;;;;;6.35;100.00;100665.56;5549995;25;19943;-70
2024/04/12 04:34:13;;;;;;;;;;;;;;;6.31;100.00;100670.31;5528783;25;19927;-69
2024/04/12 04:36:41;;;;;;;;;;;;;;;6.28;100.00;100669.75;5501761;25;20504;-68
2024/04/12 04:39:07;;;;;;;;;;;;;;;6.32;100.00;100687.84;5530688;25;19928;-70
2024/04/12 04:41:32;;;;;;;;;;;;;;;6.39;100.00;100686.34;5518480;25;20377;-66
2024/04/12 04:43:59;;;;;;;;;;;;;;;6.40;100.00;100673.97;5551897;25;19935;-71
2024/04/12 04:46:27;;;;;;;;;;;;;;;6.49;100.00;100678.41;5566070;25;19927;-71
2024/04/12 04:48:56;;;;;;;;;;;;;;;6.52;100.00;100678.97;5508570;25;19927;-71
2024/04/12 04:51:22;;;;;;;;;;;;;;;6.50;100.00;100683.56;5555478;25;19928;-69
2024/04/12 04:53:52;;;;;;;;;;;;;;;6.58;100.00;100692.59;5525831;25;19999;-69
2024/04/12 04:56:24;;;;;;;;;;;;;;;6.53;100.00;100685.94;5551355;25;19956;-72
2024/04/12 04:58:51;;;;;;;;;;;;;;;6.55;100.00;100687.59;5542953;25;19934;-71
2024/04/12 05:01:17;;;;;;;;;;;;;;;6.61;100.00;100702.91;5565822;25;19930;-70
2024/04/12 05:03:43;;;;;;;;;;;;;;;6.64;100.00;100702.63;5548836;25;19939;-72
2024/04/12 05:06:08;;;;;;;;;;;;;;;6.63;100.00;100716.84;5555316;25;20002;-70
2024/04/12 05:08:35;;;;;;;;;;;;;;;6.57;100.00;100704.16;5498919;26;19939;-72
2024/04/12 05:11:06;;;;;;;;;;;;;;;6.49;100.00;100700.41;5526563;25;19963;-69
2024/04/12 05:13:37;;;;;;;;;;;;;;;6.62;100.00;100731.03;5493213;26;19938;-67
2024/04/12 05:16:15;;;;;;;;;;;;;;;6.61;100.00;100709.03;5530329;25;19936;-69
2024/04/12 05:18:44;;;;;;;;;;;;;;;6.64;100.00;100729.09;5545012;25;19933;-69
2024/04/12 05:21:13;;;;;;;;;;;;;;;6.61;100.00;100724.09;5546662;25;19934;-70
2024/04/12 05:23:39;;;;;;;;;;;;;;;6.62;100.00;100729.25;5530044;25;19995;-69
2024/04/12 05:26:05;;;;;;;;;;;;;;;6.60;100.00;100730.34;5555076;25;19934;-70
2024/04/12 05:28:30;;;;;;;;;;;;;;;6.61;100.00;100735.50;5544168;25;19939;-69
2024/04/12 05:30:56;;;;;;;;;;;;;;;6.59;100.00;100744.56;5549304;25;19927;-68
2024/04/12 05:33:23;;;;;;;;;;;;;;;6.53;100.00;100735.34;5560181;25;20389;-71
2024/04/12 05:35:48;;;;;;;;;;;;;;;6.49;100.00;100749.84;5563636;25;19955;-72
2024/04/12 05:38:13;;;;;;;;;;;;;;;6.50;100.00;100741.75;5565218;25;19934;-70
2024/04/12 05:40:51;;;;;;;;;;;;;;;6.49;100.00;100733.97;5558870;25;19946;-70
2024/04/12 05:43:16;;;;;;;;;;;;;;;6.52;100.00;100739.81;5526443;26;20375;-69
2024/04/12 05:45:49;;;;;;;;;;;;;;;6.48;100.00;100735.78;5563360;25;19935;-71
2024/04/12 05:48:19;;;;;;;;;;;;;;;6.49;100.00;100736.63;5562041;25;20374;-71
2024/04/12 05:50:49;;;;;;;;;;;;;;;6.58;100.00;100740.25;5558913;25;20287;-71
2024/04/12 05:53:15;;;;;;;;;;;;;;;6.59;100.00;100744.56;5504788;26;19933;-68
2024/04/12 05:55:44;;;;;;;;;;;;;;;6.62;100.00;100742.47;5505740;25;19938;-73
2024/04/12 05:58:11;;;;;;;;;;;;;;;6.63;100.00;100745.94;5511656;25;20338;-72
2024/04/12 06:00:36;;;;;;;;;;;;;;;6.58;100.00;100750.81;5515098;26;20387;-70
2024/04/12 06:03:01;;;;;;;;;;;;;;;6.64;100.00;100750.25;5495841;25;19927;-72
2024/04/12 06:05:27;;;;;;;;;;;;;;;6.69;100.00;100754.19;5509973;26;19937;-72
2024/04/12 06:07:52;;;;;;;;;;;;;;;6.68;100.00;100759.63;5528841;25;19940;-71
2024/04/12 06:10:19;;;;;;;;;;;;;;;6.66;100.00;100761.59;5541139;25;20379;-72
2024/04/12 06:12:45;;;;;;;;;;;;;;;6.68;100.00;100754.34;5543583;25;19947;-72
2024/04/12 06:15:15;;;;;;;;;;;;;;;6.75;100.00;100776.63;5537741;25;19947;-70
2024/04/12 06:17:41;;;;;;;;;;;;;;;6.73;100.00;100771.47;5550363;25;19942;-72
2024/04/12 06:20:08;;;;;;;;;;;;;;;6.70;100.00;100770.91;5544257;25;19934;-70
2024/04/12 06:22:34;;;;;;;;;;;;;;;6.67;100.00;100760.59;5543578;25;19967;-71
2024/04/12 06:25:01;;;;;;;;;;;;;;;6.68;100.00;100767.56;5543174;25;19927;-71
2024/04/12 06:27:29;;;;;;;;;;;;;;;6.77;100.00;100762.28;5542403;25;20005;-70
2024/04/12 06:29:59;;;;;;;;;;;;;;;6.82;100.00;100777.75;5539667;25;19927;-70
2024/04/12 06:32:26;;;;;;;;;;;;;;;6.81;100.00;100784.00;5539704;25;19979;-70
2024/04/12 06:34:53;;;;;;;;;;;;;;;6.90;100.00;100783.19;5548202;25;20454;-71
2024/04/12 06:37:21;;;;;;;;;;;;;;;6.87;100.00;100785.25;5533992;25;19949;-72
2024/04/12 06:39:48;;;;;;;;;;;;;;;6.89;100.00;100789.44;5544409;25;19927;-70
2024/04/12 06:42:14;;;;;;;;;;;;;;;6.66;100.00;100788.88;5559368;25;19927;-72
2024/04/12 06:44:42;;;;;;;;;;;;;;;6.67;100.00;100777.31;5550227;25;19926;-72
2024/04/12 06:47:09;;;;;;;;;;;;;;;6.62;100.00;100783.97;5515552;25;19927;-71
2024/04/12 06:49:37;;;;;;;;;;;;;;;6.63;100.00;100791.78;5545094;25;19927;-69
2024/04/12 06:52:09;;;;;;;;;;;;;;;6.66;100.00;100785.41;5529316;25;19943;-72
2024/04/12 06:54:41;;;;;;;;;;;;;;;6.60;100.00;100792.03;5540105;25;19927;-71
2024/04/12 06:57:06;;;;;;;;;;;;;;;6.66;100.00;100798.63;5557262;25;19927;-70
2024/04/12 06:59:35;;;;;;;;;;;;;;;6.69;100.00;100791.25;5533245;25;19933;-71
2024/04/12 07:02:08;;;;;;;;;;;;;;;6.72;100.00;100798.06;5568282;25;19934;-71
2024/04/12 07:04:33;;;;;;;;;;;;;;;6.84;100.00;100799.63;5584866;25;19930;-72
2024/04/12 07:07:04;;;;;;;;;;;;;;;6.90;100.00;100790.28;5526808;26;19944;-71
2024/04/12 07:09:30;;;;;;;;;;;;;;;6.86;100.00;100802.13;5540294;25;19931;-73
2024/04/12 07:11:57;;;;;;;;;;;;;;;6.91;100.00;100803.38;5547640;25;19935;-73
2024/04/12 07:14:23;;;;;;;;;;;;;;;7.09;100.00;100820.25;5545170;25;19999;-72
2024/04/12 07:16:53;;;;;;;;;;;;;;;7.24;100.00;100799.50;5549350;25;20370;-71
2024/04/12 07:19:23;;;;;;;;;;;;;;;7.12;100.00;100809.38;5517273;26;19967;-73
2024/04/12 07:21:54;;;;;;;;;;;;;;;7.30;100.00;100811.34;5547102;25;19938;-71
2024/04/12 07:24:22;;;;;;;;;;;;;;;7.56;100.00;100817.75;5538991;25;19935;-72
2024/04/12 07:26:47;;;;;;;;;;;;;;;7.67;100.00;100817.56;5550260;25;19927;-71
2024/04/12 07:29:13;;;;;;;;;;;;;;;7.64;100.00;100825.81;5545924;25;20025;-74
2024/04/12 07:31:38;;;;;;;;;;;;;;;7.67;100.00;100827.34;5539367;25;19938;-76
2024/04/12 07:34:07;;;;;;;;;;;;;;;7.60;100.00;100839.50;5510289;26;19927;-73
2024/04/12 07:36:34;;;;;;;;;;;;;;;7.53;100.00;100843.69;5553672;25;19939;-73
2024/04/12 07:39:07;;;;;;;;;;;;;;;7.63;100.00;100837.41;5544035;25;19955;-74
2024/04/12 07:41:34;;;;;;;;;;;;;;;7.63;100.00;100829.44;5527414;25;19933;-75
2024/04/12 07:43:59;;;;;;;;;;;;;;;7.70;100.00;100838.50;5493732;25;20445;-76
2024/04/12 07:46:33;;;;;;;;;;;;;;;7.80;100.00;100850.88;5539986;25;19939;-75
2024/04/12 07:48:59;;;;;;;;;;;;;;;7.91;100.00;100853.41;5547918;25;19927;-73
2024/04/12 07:51:28;;;;;;;;;;;;;;;8.09;100.00;100856.97;5541183;25;19937;-72
2024/04/12 07:53:53;;;;;;;;;;;;;;;8.14;99.31;100854.75;5547160;25;19927;-73
2024/04/12 07:56:21;;;;;;;;;;;;;;;8.13;98.85;100857.53;5501501;26;19931;-72
2024/04/12 07:59:01;;;;;;;;;;;;;;;8.08;98.51;100871.22;5553458;25;20058;-72
2024/04/12 08:01:27;;;;;;;;;;;;;;;7.92;97.85;100876.28;5554354;25;19943;-73
2024/04/12 08:04:22;;;;;;;;;;;;;;;7.85;97.20;100891.09;5544587;25;19927;-75
2024/04/12 08:06:55;;;;;;;;;;;;;;;7.65;98.30;100869.91;5524853;25;19928;-74
2024/04/12 08:09:46;;;;;;;;;;;;;;;7.61;99.25;100894.19;5550598;25;19934;-71
2024/04/12 08:12:17;;;;;;;;;;;;;;;7.53;98.80;100892.25;5516476;25;19934;-73
2024/04/12 08:14:52;;;;;;;;;;;;;;;7.61;98.88;100896.84;5541724;25;19998;-70
2024/04/12 08:17:23;;;;;;;;;;;;;;;7.50;97.96;100910.19;5531579;25;19942;-76
2024/04/12 08:19:55;;;;;;;;;;;;;;;7.41;97.80;100925.13;5540867;25;19959;-77
2024/04/12 08:22:25;;;;;;;;;;;;;;;7.39;98.57;100922.63;5505721;25;20020;-76
2024/04/12 08:24:51;;;;;;;;;;;;;;;7.44;97.57;100930.16;5518484;26;19927;-72
2024/04/12 08:27:20;;;;;;;;;;;;;;;7.53;97.48;100926.69;5490242;25;20382;-69
2024/04/12 08:29:48;;;;;;;;;;;;;;;7.33;97.18;100949.66;5539025;25;20309;-71
2024/04/12 08:32:14;;;;;;;;;;;;;;;7.29;97.81;100942.97;5531352;25;19991;-76
2024/04/12 08:34:45;;;;;;;;;;;;;;;7.39;98.18;100945.63;5487008;26;19927;-76
2024/04/12 08:37:16;;;;;;;;;;;;;;;7.43;96.53;100941.72;5529848;25;19931;-71
2024/04/12 08:39:53;;;;;;;;;;;;;;;7.35;97.12;100957.47;5536095;25;19938;-73
2024/04/12 08:42:19;;;;;;;;;;;;;;;7.61;96.24;100952.50;5524592;26;19934;-75
2024/04/12 08:44:45;;;;;;;;;;;;;;;7.90;95.32;100957.81;5499448;25;19956;-70
2024/04/12 08:47:29;;;;;;;;;;;;;;;8.18;93.60;100951.63;5539001;25;19927;-70
2024/04/12 08:50:12;;;;;;;;;;;;;;;8.08;90.88;100954.28;5537604;25;19927;-69
2024/04/12 08:52:47;;;;;;;;;;;;;;;8.00;91.15;100963.91;5539572;25;19927;-70
2024/04/12 08:55:20;;;;;;;;;;;;;;;8.14;90.27;100975.94;5532246;25;19935;-70
2024/04/12 08:57:47;;;;;;;;;;;;;;;7.97;89.72;100964.22;5557290;25;19991;-70
2024/04/12 09:00:18;;;;;;;;;;;;;;;7.85;90.74;100981.25;5529884;25;19928;-69
2024/04/12 09:02:52;;;;;;;;;;;;;;;7.78;91.95;100992.38;5549001;25;19954;-70
2024/04/12 09:05:25;;;;;;;;;;;;;;;7.82;91.78;100982.38;5551457;25;19927;-70
2024/04/12 09:07:50;;;;;;;;;;;;;;;7.75;92.07;100995.31;5532134;25;19934;-70
2024/04/12 09:10:19;;;;;;;;;;;;;;;7.73;92.18;100988.47;5546318;25;19928;-70
2024/04/12 09:12:45;;;;;;;;;;;;;;;7.68;91.91;100982.75;5548618;25;19928;-70
2024/04/12 09:15:23;;;;;;;;;;;;;;;7.74;91.25;101006.06;5542319;25;19934;-70
2024/04/12 09:17:58;;;;;;;;;;;;;;;7.68;92.16;100990.72;5548822;25;19994;-69
2024/04/12 09:20:30;;;;;;;;;;;;;;;7.73;92.52;101001.75;5543224;25;19927;-71
2024/04/12 09:22:56;;;;;;;;;;;;;;;7.61;92.03;101009.00;5555201;25;19959;-69
2024/04/12 09:25:26;;;;;;;;;;;;;;;7.48;93.17;100997.78;5548132;25;20502;-71
2024/04/12 09:27:51;;;;;;;;;;;;;;;7.37;93.79;101012.00;5519854;25;19995;-69
2024/04/12 09:33:20;;;;;;;;;;;;;;;7.42;94.39;101006.31;5553713;25;19953;-68
2024/04/12 09:35:47;;;;;;;;;;;;;;;7.47;94.07;101015.50;5548419;25;19931;-71
2024/04/12 09:38:16;;;;;;;;;;;;;;;7.28;94.55;101009.34;5538108;25;20013;-70
2024/04/12 09:40:42;;;;;;;;;;;;;;;7.39;95.21;101033.06;5555544;25;20393;-71
2024/04/12 09:45:45;;;;;;;;;;;;;;;7.63;93.30;101020.28;5507886;26;19927;-71
2024/04/12 10:37:54;;;;;;;;;;;;;;;8.38;86.93;101101.91;5502615;26;20335;-71
2024/04/12 10:40:21;;;;;;;;;;;;;;;8.60;86.68;101116.69;5535533;25;19927;-72
2024/04/12 10:42:52;;;;;;;;;;;;;;;8.86;83.60;101116.94;5536593;25;19934;-69
2024/04/12 10:45:17;;;;;;;;;;;;;;;8.93;83.68;101118.03;5536042;25;20335;-72
2024/04/12 10:47:46;;;;;;;;;;;;;;;8.78;82.55;101124.78;5539016;25;19935;-71
2024/04/12 10:50:13;;;;;;;;;;;;;;;8.71;82.99;101128.16;5541724;25;19928;-70
2024/04/12 10:52:39;;;;;;;;;;;;;;;8.76;83.04;101126.75;5536599;25;19955;-70
2024/04/12 10:55:08;;;;;;;;;;;;;;;8.69;82.65;101126.50;5510678;26;20267;-72
2024/04/12 10:57:38;;;;;;;;;;;;;;;8.80;83.28;101135.28;5547978;25;19927;-73
2024/04/12 11:00:05;;;;;;;;;;;;;;;8.91;82.32;101141.25;5536744;25;19952;-70
2024/04/12 11:02:33;;;;;;;;;;;;;;;9.11;81.84;101139.41;5533886;25;20375;-69
2024/04/12 11:05:05;;;;;;;;;;;;;;;9.44;82.12;101137.19;5497334;26;19935;-70
2024/04/12 11:07:31;;;;;;;;;;;;;;;9.50;78.86;101142.75;5549840;25;19934;-70
2024/04/12 11:10:03;;;;;;;;;;;;;;;9.41;77.84;101148.13;5537780;25;19928;-70
2024/04/12 11:12:29;;;;;;;;;;;;;;;9.24;79.11;101155.00;5552490;25;19939;-72
2024/04/12 11:31:06;;;;;;;;;;;;;;;9.18;80.04;101150.28;5511988;26;19938;-71
2024/04/12 11:31:52;;;;;;;;;;;;;;;9.07;80.50;101185.00;5532115;25;19927;-70
2024/04/12 11:34:29;;;;;;;;;;;;;;;9.04;80.27;101186.13;5529570;25;19927;-70
2024/04/12 11:36:55;;;;;;;;;;;;;;;8.93;80.62;101180.94;5547497;25;19934;-70
2024/04/12 11:39:26;;;;;;;;;;;;;;;9.15;79.37;101190.44;5540179;25;20469;-70
2024/04/12 11:41:52;;;;;;;;;;;;;;;9.47;77.55;101190.06;5534498;25;20017;-72
2024/04/12 11:44:17;;;;;;;;;;;;;;;9.86;76.75;101190.78;5549474;25;19927;-71
2024/04/12 11:46:46;;;;;;;;;;;;;;;10.13;73.58;101198.75;5546617;25;19931;-71
2024/04/12 11:49:12;;;;;;;;;;;;;;;10.22;74.13;101200.53;5533684;25;20271;-70
2024/04/12 11:51:39;;;;;;;;;;;;;;;10.11;73.06;101206.00;5515108;25;19933;-71
2024/04/12 11:54:05;;;;;;;;;;;;;;;9.85;73.28;101213.03;5538402;25;19927;-71
2024/04/12 11:56:31;;;;;;;;;;;;;;;9.75;74.31;101214.88;5542319;25;19935;-69
2024/04/12 11:58:58;;;;;;;;;;;;;;;9.67;74.56;101217.44;5525549;25;20142;-70
2024/04/12 12:01:23;;;;;;;;;;;;;;;9.56;74.93;101221.97;5491927;26;20406;-71
2024/04/12 12:03:49;;;;;;;;;;;;;;;9.36;75.89;101208.84;5464882;25;19995;-70
2024/04/12 12:06:16;;;;;;;;;;;;;;;9.58;76.16;101209.34;5538893;25;19953;-69
2024/04/12 12:08:41;;;;;;;;;;;;;;;9.74;73.89;101218.53;5559505;25;19927;-70
2024/04/12 12:11:08;;;;;;;;;;;;;;;9.85;73.58;101210.38;5536818;25;20347;-69
2024/04/12 12:13:34;;;;;;;;;;;;;;;9.89;72.01;101206.44;5532460;25;19931;-70
2024/04/12 12:15:59;;;;;;;;;;;;;;;9.83;70.86;101213.19;5549922;25;19995;-71
2024/04/12 12:18:27;;;;;;;;;;;;;;;9.81;71.87;101216.94;5529429;25;19936;-69
2024/04/12 12:20:53;;;;;;;;;;;;;;;9.97;72.80;101214.50;5542297;25;19959;-70
2024/04/12 12:23:19;;;;;;;;;;;;;;;10.15;70.66;101223.38;5517713;25;19927;-70
2024/04/12 12:25:47;;;;;;;;;;;;;;;10.13;71.03;101225.38;5552174;25;19991;-68
2024/04/12 12:28:13;;;;;;;;;;;;;;;9.82;71.23;101226.59;5528656;25;19927;-70
2024/04/12 12:30:38;;;;;;;;;;;;;;;9.68;72.10;101219.13;5501439;25;20401;-71
2024/04/12 12:33:07;;;;;;;;;;;;;;;9.74;72.57;101214.03;5539713;25;19927;-69
2024/04/12 12:35:35;;;;;;;;;;;;;;;9.81;75.90;101215.13;5541424;25;20379;-71
2024/04/12 12:38:01;;;;;;;;;;;;;;;9.99;76.49;101222.34;5537397;25;19951;-69
2024/04/12 12:40:30;;;;;;;;;;;;;;;10.26;75.57;101213.53;5535597;25;19927;-73
2024/04/12 12:42:55;;;;;;;;;;;;;;;10.49;73.74;101220.97;5545416;25;19935;-72
2024/04/12 12:45:21;;;;;;;;;;;;;;;10.30;73.96;101210.44;5550010;25;20285;-70
2024/04/12 12:47:47;;;;;;;;;;;;;;;10.10;74.71;101222.97;5539768;25;20305;-71
2024/04/12 12:50:24;;;;;;;;;;;;;;;9.86;75.77;101217.38;5533361;25;19927;-71
2024/04/12 12:52:49;;;;;;;;;;;;;;;9.74;76.46;101213.19;5551052;25;20286;-71
2024/04/12 12:55:22;;;;;;;;;;;;;;;9.72;77.07;101210.69;5538221;25;19934;-70
2024/04/12 12:57:48;;;;;;;;;;;;;;;9.69;77.08;101205.66;5544436;25;20344;-68
2024/04/12 13:00:20;;;;;;;;;;;;;;;9.68;77.99;101205.81;5525432;25;19927;-69
2024/04/12 13:02:51;;;;;;;;;;;;;;;9.65;78.20;101216.75;5548967;25;19934;-76
2024/04/12 13:05:17;;;;;;;;;;;;;;;9.61;78.29;101222.34;5507821;25;20407;-69
2024/04/12 13:07:43;;;;;;;;;;;;;;;9.49;78.65;101225.31;5510855;26;20401;-72
2024/04/12 13:10:12;;;;;;;;;;;;;;;9.51;79.31;101223.34;5538998;25;19962;-71
2024/04/12 13:12:40;;;;;;;;;;;;;;;9.46;79.88;101221.13;5547759;25;19995;-71
2024/04/12 13:15:12;;;;;;;;;;;;;;;9.47;79.38;101227.28;5510130;25;19927;-71
2024/04/12 13:17:37;;;;;;;;;;;;;;;9.39;80.27;101236.00;5538998;25;19938;-75
2024/04/12 13:20:06;;;;;;;;;;;;;;;9.29;80.57;101230.69;5538189;25;19938;-70
2024/04/12 13:22:32;;;;;;;;;;;;;;;9.27;81.08;101237.16;5537142;25;19968;-72
2024/04/12 13:25:00;;;;;;;;;;;;;;;9.24;81.04;101237.41;5501298;25;20282;-68
2024/04/12 13:27:29;;;;;;;;;;;;;;;9.26;80.85;101246.94;5543440;25;19927;-71
2024/04/12 13:29:55;;;;;;;;;;;;;;;9.32;80.71;101241.03;5537442;25;19930;-70
2024/04/12 13:32:20;;;;;;;;;;;;;;;9.34;80.13;101234.75;5545236;25;20275;-68
2024/04/12 13:34:46;;;;;;;;;;;;;;;9.39;80.62;101245.78;5542899;25;19934;-71
2024/04/12 13:37:14;;;;;;;;;;;;;;;9.37;79.58;101237.94;5540424;25;20389;-70
2024/04/12 13:39:39;;;;;;;;;;;;;;;9.39;79.53;101228.00;5541827;25;19927;-71
2024/04/12 13:42:10;;;;;;;;;;;;;;;9.34;79.77;101224.94;5526752;25;19934;-69
2024/04/12 13:52:48;;;;;;;;;;;;;;;9.30;78.95;101218.25;5538578;25;20278;-71
2024/04/12 13:55:14;;;;;;;;;;;;;;;9.27;79.53;101221.19;5532289;25;20295;-70
2024/04/12 13:57:40;;;;;;;;;;;;;;;9.29;80.30;101229.88;5554856;25;19959;-69
2024/04/12 14:00:09;;;;;;;;;;;;;;;9.38;80.35;101223.69;5536216;25;19963;-71
2024/04/12 14:02:35;;;;;;;;;;;;;;;9.43;79.90;101224.09;5542900;25;19963;-70